Terminal Aerodrome Forecast
Issued by NWS

Home | Current Version | Previous Version | Graphics & Text | Print | Product List | Glossary On
Versions: 1 2 3 4 5 6 7 8 9 10 11 12 13 14 15 16 17 18 19 20
587
FTUS43 KBIS 242337
TAFMOT
TAF
KMOT 242337Z 2500/2524 15021G30KT P6SM BKN200
     FM250200 16012KT P6SM -SHRA OVC080
     FM250700 16008KT P6SM BKN060
     FM251300 18013G21KT P6SM SCT100
     FM251700 23020G30KT P6SM BKN100=

USA.gov is the U.S. government's official web portal to all federal, state and local government web resources and services.